Time;durP1;ratioP1;P1;durP2;ratioP2;P2;SDS_P1;SDS_P2;PMS_P1;PMS_P2;Temp;Humidity;BMP_temperature;BMP_pressure;BME280_temperature;BME280_humidity;BME280_pressure;Samples;Min_cycle;Max_cycle;Signal;HPM_P1;HPM_P2
2023/02/03 00:02:20;;;;;;;0.70;0.70;;;;;;;7.26;28.70;93192.91;4984473;28;20107;-79
2023/02/03 00:04:46;;;;;;;0.50;0.50;;;;;;;7.15;28.79;93193.84;4984684;28;20145;-80
2023/02/03 00:07:13;;;;;;;0.57;0.57;;;;;;;7.07;29.36;93191.72;4951620;28;20047;-78
2023/02/03 00:09:39;;;;;;;1.05;0.77;;;;;;;6.98;29.43;93204.38;4984748;28;20054;-79
2023/02/03 00:12:06;;;;;;;1.23;0.70;;;;;;;6.88;29.71;93194.66;4984243;28;20489;-78
2023/02/03 00:14:32;;;;;;;2.17;1.27;;;;;;;6.81;29.90;93196.66;4984475;28;20050;-79
2023/02/03 00:16:58;;;;;;;1.98;1.02;;;;;;;6.70;31.22;93197.59;4982027;28;20066;-78
2023/02/03 00:19:24;;;;;;;0.50;0.50;;;;;;;6.57;31.31;93195.34;4985190;28;20047;-78
2023/02/03 00:21:49;;;;;;;0.70;0.50;;;;;;;6.43;31.51;93187.94;4983829;28;20078;-78
2023/02/03 00:24:19;;;;;;;0.73;0.52;;;;;;;6.34;31.04;93194.59;4985160;28;20050;-78
2023/02/03 00:26:44;;;;;;;0.50;0.47;;;;;;;6.27;31.25;93193.97;4983188;28;20156;-79
2023/02/03 00:29:10;;;;;;;0.80;0.70;;;;;;;6.18;31.18;93191.00;4986554;28;20074;-79
2023/02/03 00:31:36;;;;;;;0.95;0.70;;;;;;;6.16;31.43;93194.88;4974248;28;20096;-79
2023/02/03 00:34:02;;;;;;;1.10;0.80;;;;;;;6.08;31.26;93190.91;5022780;28;20065;-78
2023/02/03 00:36:28;;;;;;;0.50;0.50;;;;;;;6.01;31.26;93196.28;5009688;28;20042;-77
2023/02/03 00:38:53;;;;;;;0.50;0.50;;;;;;;5.91;31.54;93198.69;5002771;28;20054;-79
2023/02/03 00:41:20;;;;;;;0.55;0.50;;;;;;;5.87;31.81;93204.59;4984724;28;20042;-78
2023/02/03 00:43:46;;;;;;;1.27;0.77;;;;;;;5.81;32.29;93199.34;4986836;28;20500;-79
2023/02/03 00:46:13;;;;;;;0.57;0.57;;;;;;;5.74;32.25;93200.53;4987919;28;20047;-78
2023/02/03 00:48:39;;;;;;;0.77;0.60;;;;;;;5.68;32.13;93204.09;5002826;28;20381;-78
2023/02/03 00:51:05;;;;;;;0.68;0.60;;;;;;;5.63;32.27;93197.78;4987807;28;20047;-79
2023/02/03 00:53:31;;;;;;;1.15;0.80;;;;;;;5.59;32.46;93207.09;5003457;28;20099;-78
2023/02/03 00:55:57;;;;;;;0.75;0.50;;;;;;;5.52;32.71;93210.88;5002139;28;20049;-79
2023/02/03 00:58:22;;;;;;;0.68;0.60;;;;;;;5.47;32.48;93211.59;4987507;28;20110;-78
2023/02/03 01:00:48;;;;;;;0.57;0.57;;;;;;;5.45;32.38;93210.22;5001526;28;20141;-79
2023/02/03 01:03:15;;;;;;;0.93;0.70;;;;;;;5.40;32.70;93211.75;5002913;28;20082;-79
2023/02/03 01:05:40;;;;;;;1.45;0.80;;;;;;;5.37;32.67;93214.78;5002260;28;20058;-78
2023/02/03 01:08:06;;;;;;;1.77;0.63;;;;;;;5.31;32.73;93214.94;4986935;28;20121;-79
2023/02/03 01:15:56;;;;;;;0.40;0.40;;;;;;;5.32;32.80;93221.72;4873473;26;20085;-79
2023/02/03 01:18:22;;;;;;;0.60;0.60;;;;;;;5.31;32.57;93217.53;4979573;28;20057;-79
2023/02/03 01:20:47;;;;;;;1.25;0.63;;;;;;;5.30;32.34;93215.97;4989926;28;20034;-79
2023/02/03 01:23:13;;;;;;;0.45;0.45;;;;;;;5.30;33.00;93219.34;4983124;28;20042;-79
2023/02/03 01:37:33;;;;;;;0.93;0.73;;;;;;;5.15;33.50;93232.06;5675329;23;20533;-79
2023/02/03 01:39:59;;;;;;;1.15;0.50;;;;;;;5.13;33.83;93227.13;4899284;29;20056;-78
2023/02/03 01:42:25;;;;;;;0.65;0.55;;;;;;;5.10;33.94;93227.59;4988147;23;20060;-78
2023/02/03 01:44:51;;;;;;;0.55;0.50;;;;;;;4.76;33.62;93180.84;5304173;23;20061;-94
2023/02/03 01:47:41;;;;;;;2.05;0.68;;;;;;;5.02;33.73;93225.38;4879050;29;20053;-94
2023/02/03 01:50:36;;;;;;;0.50;0.50;;;;;;;4.72;33.91;93184.91;4864120;29;20046;-95
2023/02/03 01:53:12;;;;;;;0.60;0.60;;;;;;;4.57;34.42;93167.28;4864368;29;20057;-93
2023/02/03 01:55:51;;;;;;;0.85;0.60;;;;;;;4.62;34.10;93173.59;4863952;29;20069;-94
2023/02/03 02:02:20;;;;;;;0.63;0.60;;;;;;;4.54;33.87;93162.53;4864600;29;20086;-93
2023/02/03 02:05:02;;;;;;;1.02;0.70;;;;;;;4.53;34.03;93160.97;4863832;29;20551;-94
2023/02/03 02:07:38;;;;;;;0.52;0.52;;;;;;;4.51;34.30;93165.59;4863833;29;20638;-94
2023/02/03 02:10:07;;;;;;;1.13;0.70;;;;;;;4.46;34.50;93167.31;4863419;29;20052;-94
2023/02/03 02:12:35;;;;;;;0.95;0.63;;;;;;;4.42;34.64;93163.63;4863578;29;20034;-95
2023/02/03 02:15:07;;;;;;;1.23;0.70;;;;;;;4.59;34.86;93198.16;4865889;29;20045;-94
2023/02/03 02:18:29;;;;;;;0.63;0.60;;;;;;;4.32;34.98;93159.81;4850379;29;20049;-95
2023/02/03 02:21:19;;;;;;;0.95;0.80;;;;;;;4.43;35.37;93175.56;4866214;29;20482;-95
2023/02/03 02:24:06;;;;;;;1.08;0.70;;;;;;;4.59;35.70;93209.34;4867276;29;20071;-94
2023/02/03 02:26:49;;;;;;;0.80;0.65;;;;;;;4.58;35.00;93212.94;4866207;29;20084;-94
2023/02/03 02:29:33;;;;;;;0.50;0.50;;;;;;;4.56;35.28;93207.19;4866420;29;20055;-95
2023/02/03 02:32:42;;;;;;;1.48;0.85;;;;;;;4.46;34.76;93185.44;4882181;29;20053;-94
2023/02/03 02:35:26;;;;;;;0.75;0.60;;;;;;;4.54;34.72;93201.44;4867051;29;20045;-93
2023/02/03 02:38:14;;;;;;;0.60;0.60;;;;;;;4.13;34.92;93137.69;4866403;29;20052;-95
2023/02/03 02:41:01;;;;;;;0.77;0.55;;;;;;;4.53;34.53;93201.69;4881292;29;20049;-94
2023/02/03 02:43:39;;;;;;;;;;;;;;;;;;;;;
2023/02/03 02:46:28;;;;;;;1.20;0.70;;;;;;;4.16;34.58;93152.75;4880538;29;20053;-94
2023/02/03 02:49:13;;;;;;;1.45;0.70;;;;;;;4.51;34.58;93207.09;4881749;29;20049;-94
2023/02/03 02:51:49;;;;;;;0.90;0.60;;;;;;;4.17;34.87;93162.13;4865253;29;20045;-94
2023/02/03 02:54:46;;;;;;;0.40;0.40;;;;;;;4.47;34.47;93197.41;4882541;29;20132;-95
2023/02/03 02:57:24;;;;;;;0.50;0.50;;;;;;;4.17;34.41;93143.97;4896182;29;20045;-94
2023/02/03 02:59:57;;;;;;;0.70;0.70;;;;;;;4.18;34.19;93154.09;4897514;29;20063;-95
2023/02/03 03:02:37;;;;;;;2.58;0.77;;;;;;;4.37;34.28;93185.84;4896343;29;20061;-93
2023/02/03 03:05:11;;;;;;;0.98;0.63;;;;;;;4.20;34.72;93151.28;4882578;29;20112;-94
2023/02/03 03:07:58;;;;;;;0.73;0.70;;;;;;;4.44;34.35;93195.28;4866862;29;20108;-96
2023/02/03 03:10:36;;;;;;;1.17;0.80;;;;;;;4.27;34.22;93162.31;4866876;29;20073;-94
2023/02/03 03:13:11;;;;;;;1.17;0.75;;;;;;;4.46;33.81;93188.03;4866894;29;20051;-94
2023/02/03 03:15:39;;;;;;;0.82;0.60;;;;;;;4.48;33.40;93173.06;4867146;29;20075;-93
2023/02/03 03:18:27;;;;;;;1.23;0.70;;;;;;;4.98;32.83;93224.28;4884019;29;20060;-93
2023/02/03 03:21:05;;;;;;;0.80;0.70;;;;;;;4.94;31.86;93186.84;4897956;29;20477;-94
2023/02/03 03:23:41;;;;;;;1.60;0.80;;;;;;;5.03;32.13;93195.81;4881857;29;20045;-95
2023/02/03 03:26:11;;;;;;;0.80;0.60;;;;;;;5.39;32.00;93233.53;4902505;29;20053;-94
2023/02/03 03:29:02;;;;;;;;;;;;;;;;;;;;;
2023/02/03 03:31:30;;;;;;;0.80;0.80;;;;;;;5.78;30.39;93236.19;4869753;29;20080;-79
2023/02/03 03:33:56;;;;;;;0.77;0.60;;;;;;;5.89;29.99;93236.34;4870478;29;20053;-80
2023/02/03 03:36:29;;;;;;;2.75;0.90;;;;;;;5.94;29.93;93232.03;4869396;29;20049;-80
2023/02/03 03:39:14;;;;;;;0.55;0.50;;;;;;;5.96;30.01;93234.38;4885151;29;20041;-80
2023/02/03 03:42:12;;;;;;;0.60;0.60;;;;;;;6.02;29.69;93244.63;4868791;29;20567;-80
2023/02/03 03:44:51;;;;;;;1.38;0.82;;;;;;;6.09;29.17;93238.47;4862117;29;20084;-80
2023/02/03 03:47:29;;;;;;;1.25;0.85;;;;;;;6.25;28.51;93228.00;4870239;29;20090;-79
2023/02/03 03:49:58;;;;;;;0.60;0.57;;;;;;;6.37;28.45;93234.91;4870172;29;20065;-79
2023/02/03 03:52:29;;;;;;;0.68;0.68;;;;;;;6.38;28.63;93234.69;4884139;29;20041;-79
2023/02/03 03:54:56;;;;;;;1.15;0.65;;;;;;;6.41;28.35;93236.78;4870254;29;20045;-80
2023/02/03 03:57:27;;;;;;;1.92;0.60;;;;;;;6.70;28.09;93239.22;4869270;29;20449;-80
2023/02/03 03:59:53;;;;;;;0.98;0.80;;;;;;;6.68;28.37;93241.28;4869916;29;20087;-79
2023/02/03 04:02:21;;;;;;;0.70;0.70;;;;;;;6.75;27.91;93241.88;4870259;29;20045;-79
2023/02/03 04:04:48;;;;;;;0.93;0.60;;;;;;;6.86;27.37;93243.53;4873676;29;20045;-78
2023/02/03 04:07:14;;;;;;;0.80;0.68;;;;;;;6.91;27.16;93236.84;4872264;29;20060;-80
2023/02/03 04:09:41;;;;;;;1.80;0.77;;;;;;;7.01;26.79;93244.75;4873520;29;20260;-81
2023/02/03 04:12:21;;;;;;;1.00;0.70;;;;;;;7.05;26.85;93241.41;4873681;29;20034;-80
2023/02/03 04:14:47;;;;;;;1.05;0.80;;;;;;;7.09;26.65;93236.50;4873748;29;20053;-80
2023/02/03 04:17:13;;;;;;;0.70;0.60;;;;;;;7.07;26.73;93233.38;4872373;29;20068;-80
2023/02/03 04:19:38;;;;;;;1.15;0.80;;;;;;;7.02;26.74;93228.88;4873023;29;20070;-80
2023/02/03 04:22:04;;;;;;;0.70;0.70;;;;;;;6.97;26.88;93225.44;4872487;29;20431;-80
2023/02/03 04:24:30;;;;;;;1.58;0.80;;;;;;;6.97;26.70;93222.84;4873398;29;20056;-80
2023/02/03 04:26:55;;;;;;;1.23;0.70;;;;;;;6.94;26.80;93223.34;4871147;29;20092;-79
2023/02/03 04:29:21;;;;;;;1.77;0.88;;;;;;;6.97;27.18;93222.84;4872422;29;20496;-80
2023/02/03 04:31:46;;;;;;;2.15;0.90;;;;;;;7.11;27.35;93218.81;4873760;29;20044;-80
2023/02/03 04:34:12;;;;;;;2.05;0.70;;;;;;;7.05;27.43;93219.81;4872548;29;20061;-78
2023/02/03 04:36:38;;;;;;;0.73;0.50;;;;;;;6.83;27.37;93215.41;4871475;29;20076;-79
2023/02/03 04:39:03;;;;;;;0.98;0.73;;;;;;;6.77;27.10;93203.38;4872271;29;20120;-80
2023/02/03 04:41:29;;;;;;;1.67;0.80;;;;;;;6.65;27.43;93215.75;4874045;29;20058;-80
2023/02/03 04:43:55;;;;;;;0.77;0.60;;;;;;;6.62;27.48;93214.44;4872428;29;20045;-80
2023/02/03 04:46:21;;;;;;;0.95;0.80;;;;;;;6.80;26.12;93215.91;4873352;29;20411;-80
2023/02/03 04:48:46;;;;;;;0.80;0.70;;;;;;;6.96;26.31;93208.25;4871943;29;20049;-79
2023/02/03 04:51:12;;;;;;;2.22;0.75;;;;;;;7.05;25.95;93206.78;4872007;29;20412;-79
2023/02/03 04:53:37;;;;;;;1.17;0.80;;;;;;;7.13;26.09;93208.16;4871313;29;20121;-80
2023/02/03 04:56:03;;;;;;;1.08;0.70;;;;;;;7.16;26.21;93195.44;4873243;29;20047;-80
2023/02/03 04:58:31;;;;;;;1.33;0.80;;;;;;;7.11;26.44;93197.19;4871767;29;20063;-79
2023/02/03 05:00:57;;;;;;;0.70;0.60;;;;;;;7.14;26.43;93202.72;4872386;29;20412;-80
2023/02/03 05:03:22;;;;;;;1.08;0.60;;;;;;;7.19;26.37;93207.97;4886897;29;20046;-80
2023/02/03 05:05:49;;;;;;;1.65;0.88;;;;;;;7.32;26.32;93198.16;4872838;29;20366;-80
2023/02/03 05:08:15;;;;;;;1.00;0.70;;;;;;;7.26;26.62;93190.31;4871045;29;20050;-80
2023/02/03 05:10:40;;;;;;;2.17;0.80;;;;;;;7.20;26.80;93186.06;4871877;29;20046;-78
2023/02/03 05:13:06;;;;;;;1.10;0.80;;;;;;;7.22;26.89;93199.63;4871684;29;20069;-79
2023/02/03 05:15:31;;;;;;;1.90;0.63;;;;;;;7.34;26.14;93206.50;4871263;29;20546;-79
2023/02/03 05:17:57;;;;;;;2.00;0.80;;;;;;;7.25;26.44;93204.38;4871555;29;20053;-80
2023/02/03 05:20:22;;;;;;;0.88;0.70;;;;;;;7.32;26.43;93208.56;4871105;29;20049;-80
2023/02/03 05:22:48;;;;;;;1.00;0.75;;;;;;;7.37;26.20;93206.03;4871199;29;20049;-80
2023/02/03 05:25:13;;;;;;;1.48;0.77;;;;;;;7.27;26.52;93212.72;4872362;29;20559;-78
2023/02/03 05:27:40;;;;;;;0.88;0.65;;;;;;;7.37;25.84;93214.63;4871413;29;20129;-80
2023/02/03 05:30:08;;;;;;;0.82;0.70;;;;;;;7.49;26.00;93215.22;4871122;29;20100;-79
2023/02/03 05:32:33;;;;;;;1.02;0.70;;;;;;;7.40;26.24;93216.72;4872856;29;20115;-80
2023/02/03 05:34:59;;;;;;;1.63;0.75;;;;;;;7.53;25.42;93220.75;4867952;29;20041;-79
2023/02/03 05:37:25;;;;;;;1.45;0.85;;;;;;;7.44;25.60;93222.22;4871790;29;20056;-80
2023/02/03 05:39:51;;;;;;;0.60;0.60;;;;;;;7.53;25.59;93225.16;4872316;29;20048;-80
2023/02/03 05:42:17;;;;;;;2.17;0.80;;;;;;;7.46;25.55;93215.72;4872135;29;20054;-79
2023/02/03 05:44:43;;;;;;;2.08;0.73;;;;;;;7.48;25.52;93205.84;4869898;29;20054;-79
2023/02/03 05:47:08;;;;;;;0.85;0.75;;;;;;;7.48;25.76;93213.66;4865148;29;20456;-81
2023/02/03 05:49:34;;;;;;;1.00;0.73;;;;;;;7.54;25.37;93203.28;4864431;29;20037;-79
2023/02/03 05:52:01;;;;;;;0.73;0.73;;;;;;;7.67;24.63;93198.41;4867627;29;20411;-80
2023/02/03 05:54:26;;;;;;;2.72;0.80;;;;;;;7.68;24.36;93197.41;4866916;29;20052;-81
2023/02/03 05:56:52;;;;;;;0.93;0.70;;;;;;;7.64;24.37;93188.50;4862032;29;20133;-82
2023/02/03 05:59:17;;;;;;;1.33;0.60;;;;;;;7.75;23.70;93201.63;4861714;29;20099;-83
2023/02/03 06:01:43;;;;;;;0.77;0.77;;;;;;;7.70;23.61;93187.50;4863071;29;20065;-82
2023/02/03 06:04:09;;;;;;;0.60;0.60;;;;;;;7.76;23.81;93188.31;4861069;29;20060;-80
2023/02/03 06:06:35;;;;;;;1.35;0.80;;;;;;;7.69;23.74;93200.78;4858338;29;20049;-81
2023/02/03 06:09:06;;;;;;;0.75;0.65;;;;;;;7.74;23.23;93189.63;4859875;29;20808;-81
2023/02/03 06:11:34;;;;;;;1.23;0.85;;;;;;;7.68;23.06;93176.56;4864917;29;20069;-81
2023/02/03 06:14:00;;;;;;;0.80;0.80;;;;;;;7.96;23.36;93190.28;4875088;29;20066;-83
2023/02/03 06:16:27;;;;;;;0.95;0.75;;;;;;;7.85;23.06;93196.47;4864280;29;20045;-82
2023/02/03 06:18:54;;;;;;;0.60;0.60;;;;;;;7.72;23.39;93185.44;4864573;29;20036;-81
2023/02/03 06:21:21;;;;;;;0.98;0.68;;;;;;;7.75;23.36;93186.75;4863916;29;20053;-84
2023/02/03 06:23:46;;;;;;;1.08;0.80;;;;;;;7.76;22.99;93192.75;4849904;29;20098;-78
2023/02/03 06:26:12;;;;;;;1.00;0.80;;;;;;;7.87;25.03;93194.38;4851949;29;20054;-81
2023/02/03 06:28:38;;;;;;;1.27;0.90;;;;;;;7.77;26.14;93194.31;4863994;29;20072;-80
2023/02/03 06:31:04;;;;;;;0.60;0.60;;;;;;;7.58;25.77;93192.09;4851688;29;20072;-79
2023/02/03 06:33:31;;;;;;;1.92;0.90;;;;;;;7.45;25.00;93197.75;4854499;29;20526;-80
2023/02/03 06:35:56;;;;;;;0.93;0.70;;;;;;;7.41;24.71;93207.09;4863389;29;20184;-81
2023/02/03 06:38:22;;;;;;;1.00;0.90;;;;;;;7.48;23.14;93207.69;4861966;29;20729;-80
2023/02/03 06:40:48;;;;;;;2.25;1.10;;;;;;;7.56;25.98;93220.22;4864175;29;20057;-81
2023/02/03 06:43:14;;;;;;;4.25;1.20;;;;;;;7.34;27.20;93209.91;4863938;29;20132;-81
2023/02/03 06:45:39;;;;;;;1.80;0.95;;;;;;;7.19;27.43;93213.16;4863742;29;20161;-80
2023/02/03 06:58:44;;;;;;;2.55;1.05;;;;;;;6.67;28.46;93218.91;6205377;22;20357;-78
2023/02/03 07:01:09;;;;;;;2.03;0.90;;;;;;;6.53;28.80;93226.28;6191769;23;20016;-77
2023/02/03 07:03:35;;;;;;;1.23;0.80;;;;;;;6.47;28.80;93235.06;6141142;23;20008;-76
2023/02/03 07:06:01;;;;;;;1.33;0.80;;;;;;;6.41;28.84;93236.00;6192307;23;20326;-77
2023/02/03 07:08:30;;;;;;;5.00;1.20;;;;;;;6.35;29.62;93236.97;6165672;23;20015;-77
2023/02/03 07:10:56;;;;;;;1.77;0.93;;;;;;;6.25;29.91;93243.63;6192416;23;20392;-77
2023/02/03 07:13:21;;;;;;;1.52;0.90;;;;;;;6.18;30.18;93222.22;6192509;23;19997;-79
2023/02/03 07:15:48;;;;;;;1.45;0.82;;;;;;;6.36;29.55;93233.34;6190947;23;20017;-77
2023/02/03 07:18:15;;;;;;;1.50;0.90;;;;;;;6.50;29.46;93233.78;6166607;23;20389;-77
2023/02/03 07:20:40;;;;;;;2.72;0.77;;;;;;;6.62;27.63;93243.03;6166178;23;20023;-77
2023/02/03 07:23:06;;;;;;;1.65;1.00;;;;;;;6.80;27.43;93239.34;6165552;23;20009;-77
2023/02/03 07:25:31;;;;;;;1.83;0.95;;;;;;;7.45;26.29;93242.03;6165769;23;20017;-76
2023/02/03 07:27:57;;;;;;;1.95;0.77;;;;;;;7.91;25.88;93243.16;6165645;23;20016;-76
2023/02/03 07:30:23;;;;;;;0.90;0.88;;;;;;;8.45;25.35;93244.81;6192007;23;20456;-78
2023/02/03 07:32:49;;;;;;;1.23;0.90;;;;;;;8.75;25.49;93245.97;6192075;23;20036;-77
2023/02/03 07:35:16;;;;;;;2.83;0.85;;;;;;;8.93;26.08;93253.34;6193400;23;20024;-77
2023/02/03 07:37:42;;;;;;;6.93;1.17;;;;;;;9.13;25.22;93257.06;6167095;23;20004;-77
2023/02/03 07:40:09;;;;;;;4.00;1.00;;;;;;;9.46;24.99;93257.66;6166947;23;20067;-77
2023/02/03 07:42:35;;;;;;;4.78;0.90;;;;;;;9.91;25.17;93261.31;6193790;23;20088;-77
2023/02/03 07:45:00;;;;;;;1.02;0.73;;;;;;;10.70;22.88;93246.78;6166761;23;20033;-78
2023/02/03 07:47:26;;;;;;;5.38;1.20;;;;;;;11.56;24.23;93257.09;6192780;23;20447;-78
2023/02/03 07:49:52;;;;;;;9.40;1.67;;;;;;;12.32;23.50;93252.31;6193281;23;20136;-78
2023/02/03 07:52:18;;;;;;;6.88;0.90;;;;;;;12.89;23.25;93261.91;6193521;23;20314;-78
2023/02/03 07:54:44;;;;;;;3.35;1.17;;;;;;;13.88;22.19;93251.66;6193703;23;20071;-78
2023/02/03 07:57:09;;;;;;;2.38;0.90;;;;;;;14.23;21.47;93255.56;6192447;23;20523;-77
2023/02/03 07:59:35;;;;;;;2.67;1.02;;;;;;;13.61;21.01;93247.06;6159160;23;20107;-77
2023/02/03 08:02:00;;;;;;;6.30;1.27;;;;;;;13.56;21.56;93242.66;6185557;23;20326;-77
2023/02/03 08:04:26;;;;;;;2.45;1.05;;;;;;;13.70;21.52;93261.91;6185873;23;20020;-77
2023/02/03 08:06:51;;;;;;;4.90;1.40;;;;;;;13.81;22.43;93249.41;6159750;23;20413;-78
2023/02/03 08:09:17;;;;;;;7.07;1.20;;;;;;;14.24;22.27;93251.09;6186311;23;20017;-79
2023/02/03 08:11:43;;;;;;;3.95;1.20;;;;;;;14.33;21.13;93255.38;6186691;23;20084;-78
2023/02/03 08:14:09;;;;;;;1.60;0.98;;;;;;;14.83;20.49;93251.34;6160072;23;20028;-78
2023/02/03 08:16:36;;;;;;;5.72;1.05;;;;;;;14.86;20.47;93250.75;6186402;23;20376;-78
2023/02/03 08:19:01;;;;;;;1.83;1.00;;;;;;;14.86;20.16;93256.03;6187869;23;20072;-78
2023/02/03 08:21:27;;;;;;;1.48;1.00;;;;;;;16.01;19.32;93263.63;6186659;23;20451;-78
2023/02/03 08:23:52;;;;;;;1.95;1.02;;;;;;;16.06;19.54;93251.38;6186135;23;20291;-78
2023/02/03 08:26:18;;;;;;;2.10;1.10;;;;;;;16.84;19.56;93260.50;6159889;23;20008;-78
2023/02/03 08:28:47;;;;;;;1.05;0.82;;;;;;;17.57;18.75;93257.41;6157453;23;20075;-78
2023/02/03 08:31:13;;;;;;;1.45;0.85;;;;;;;18.52;17.71;93263.72;6184837;23;20001;-77
2023/02/03 08:33:38;;;;;;;0.80;0.65;;;;;;;19.25;16.40;93253.00;6158973;23;20425;-78
2023/02/03 08:36:05;;;;;;;2.65;0.90;;;;;;;19.70;16.20;93244.47;6185241;23;20096;-78
2023/02/03 08:38:30;;;;;;;1.40;1.00;;;;;;;20.37;16.31;93247.13;6159044;23;20310;-78
2023/02/03 08:40:56;;;;;;;1.10;0.68;;;;;;;20.69;15.31;93247.44;6158942;23;20005;-78
2023/02/03 08:43:22;;;;;;;2.03;0.63;;;;;;;20.44;15.18;93247.38;6184860;23;20382;-77
2023/02/03 08:45:47;;;;;;;1.30;0.60;;;;;;;19.22;16.04;93256.28;6160322;23;20005;-78
2023/02/03 08:48:13;;;;;;;1.25;0.90;;;;;;;18.89;16.60;93256.13;6185942;23;20052;-77
2023/02/03 08:50:43;;;;;;;2.17;1.67;;;;;;;18.73;16.76;93254.00;6184495;23;20005;-78
2023/02/03 08:53:09;;;;;;;1.27;0.80;;;;;;;18.89;16.78;93266.72;6184921;23;20024;-77
2023/02/03 08:55:38;;;;;;;0.63;0.60;;;;;;;19.01;16.19;93274.03;6158437;23;20004;-77
2023/02/03 08:58:03;;;;;;;0.70;0.55;;;;;;;19.21;15.83;93269.88;6158503;23;20013;-79
2023/02/03 09:00:29;;;;;;;2.13;0.80;;;;;;;19.09;17.04;93265.25;6159356;23;20028;-78
2023/02/03 09:02:55;;;;;;;1.83;0.85;;;;;;;18.52;16.79;93272.44;6133979;23;20464;-77
2023/02/03 09:05:20;;;;;;;1.25;0.55;;;;;;;19.64;15.67;93276.81;6184716;23;20009;-78
2023/02/03 09:07:46;;;;;;;1.35;0.70;;;;;;;19.79;15.99;93272.81;6158470;23;20016;-78
2023/02/03 09:10:12;;;;;;;1.38;0.57;;;;;;;19.41;15.90;93276.31;6184062;23;20008;-78
2023/02/03 09:12:37;;;;;;;1.45;0.70;;;;;;;19.02;15.87;93260.44;6184444;23;20009;-77
2023/02/03 09:15:03;;;;;;;0.70;0.63;;;;;;;18.43;16.23;93260.31;6133813;23;20424;-77
2023/02/03 09:17:29;;;;;;;1.10;0.60;;;;;;;18.75;16.59;93264.25;6133546;23;20096;-77
2023/02/03 09:19:54;;;;;;;2.47;0.52;;;;;;;18.64;16.41;93263.06;6157919;23;20080;-77
2023/02/03 09:22:20;;;;;;;2.47;0.63;;;;;;;18.85;16.13;93268.50;6184128;23;20017;-77
2023/02/03 09:24:47;;;;;;;0.73;0.50;;;;;;;19.08;16.48;93269.00;6183778;23;20428;-77
2023/02/03 09:27:13;;;;;;;1.25;0.50;;;;;;;18.83;16.46;93279.41;6183997;23;20036;-77
2023/02/03 09:29:38;;;;;;;1.33;0.80;;;;;;;18.74;15.69;93270.69;6184083;23;20005;-78
2023/02/03 09:32:09;;;;;;;1.60;0.70;;;;;;;18.87;15.52;93275.03;6158612;23;20036;-78
2023/02/03 09:34:35;;;;;;;2.70;1.15;;;;;;;18.34;18.18;93278.88;6184725;23;20088;-78
2023/02/03 09:37:01;;;;;;;1.35;0.70;;;;;;;18.25;17.00;93283.41;6158174;23;19993;-78
2023/02/03 09:39:28;;;;;;;2.78;0.75;;;;;;;18.13;16.41;93273.47;6184564;23;20087;-78
2023/02/03 09:42:24;;;;;;;2.60;0.60;;;;;;;18.75;15.31;93279.41;6184956;23;20005;-78
2023/02/03 09:45:02;;;;;;;1.63;0.90;;;;;;;18.31;17.01;93279.53;6146231;23;20104;-77
2023/02/03 09:47:33;;;;;;;1.40;0.90;;;;;;;17.72;18.52;93280.00;6184620;23;20020;-77
2023/02/03 09:50:06;;;;;;;2.03;1.10;;;;;;;17.81;18.87;93293.22;6184429;23;20429;-78
2023/02/03 09:52:35;;;;;;;2.50;1.30;;;;;;;18.18;18.84;93283.13;6184508;23;20020;-78
2023/02/03 09:55:19;;;;;;;2.50;1.00;;;;;;;17.59;18.50;93281.69;6184242;23;20000;-78
2023/02/03 09:57:55;;;;;;;2.05;1.10;;;;;;;17.10;19.53;93286.25;6184147;23;20055;-78
2023/02/03 10:00:28;;;;;;;3.72;1.30;;;;;;;17.38;19.19;93286.81;6184706;23;20009;-78
2023/02/03 10:03:18;;;;;;;2.55;1.08;;;;;;;17.40;18.76;93283.84;6184681;23;20013;-78
2023/02/03 10:06:15;;;;;;;1.92;0.82;;;;;;;17.28;18.88;93281.78;6184906;23;20060;-78
2023/02/03 10:09:04;;;;;;;7.53;1.25;;;;;;;17.26;18.94;93278.66;6158132;23;20013;-77
2023/02/03 10:11:39;;;;;;;1.75;0.98;;;;;;;16.81;19.11;93282.25;6184191;23;20009;-77
2023/02/03 10:14:42;;;;;;;2.03;1.20;;;;;;;16.32;21.93;93281.34;6184009;23;20013;-77
2023/02/03 10:17:27;;;;;;;;;;;;;;;16.78;18.75;93280.22;6158453;23;20060;-77
2023/02/03 10:20:08;;;;;;;4.65;1.23;;;;;;;16.81;19.19;93274.31;6157894;23;20320;-77
2023/02/03 10:22:44;;;;;;;9.00;1.30;;;;;;;17.19;20.46;93281.00;6157689;23;20062;-77
2023/02/03 10:25:13;;;;;;;1.20;0.60;;;;;;;17.96;16.96;93270.81;6158345;23;20013;-77
2023/02/03 10:27:42;;;;;;;0.90;0.55;;;;;;;18.33;15.75;93280.00;6184563;23;20005;-78
2023/02/03 10:30:14;;;;;;;1.50;0.80;;;;;;;18.64;16.25;93285.06;6158040;23;20016;-77
2023/02/03 10:32:40;;;;;;;1.88;1.08;;;;;;;18.86;16.30;93276.09;6158161;23;20059;-77
2023/02/03 10:35:11;;;;;;;1.23;0.98;;;;;;;18.58;17.97;93282.91;6184324;23;20104;-78
2023/02/03 10:37:46;;;;;;;2.65;1.20;;;;;;;17.58;18.94;93264.22;6158064;23;20009;-78
2023/02/03 10:40:14;;;;;;;2.42;1.27;;;;;;;17.62;19.04;93259.88;6183837;23;20032;-77
2023/02/03 10:45:26;;;;;;;2.75;1.30;;;;;;;17.27;20.30;93267.00;6157673;23;20024;-77
2023/02/03 10:47:54;;;;;;;2.38;1.23;;;;;;;17.72;18.76;93266.75;6157777;23;20009;-77
2023/02/03 10:50:30;;;;;;;2.42;0.98;;;;;;;17.79;19.36;93259.13;6157432;23;20020;-78
2023/02/03 10:53:17;;;;;;;3.83;1.00;;;;;;;17.82;18.68;93257.75;6184073;23;20365;-77
2023/02/03 10:55:44;;;;;;;1.30;0.90;;;;;;;17.64;17.21;93257.72;6183888;23;20020;-77
2023/02/03 10:58:26;;;;;;;1.13;0.60;;;;;;;17.56;15.89;93247.91;6184198;23;20013;-77
2023/02/03 11:01:03;;;;;;;0.60;0.60;;;;;;;17.64;16.57;93249.75;6184062;23;20075;-77
2023/02/03 11:03:29;;;;;;;1.08;0.70;;;;;;;18.03;16.05;93248.06;6183965;23;20016;-77
2023/02/03 11:06:06;;;;;;;1.00;0.50;;;;;;;18.40;15.13;93239.75;6157535;23;20005;-77
2023/02/03 11:08:33;;;;;;;0.65;0.65;;;;;;;18.41;14.63;93242.06;6183905;23;20083;-77
2023/02/03 11:11:04;;;;;;;2.15;0.60;;;;;;;18.33;15.12;93237.59;6184184;23;20095;-77
2023/02/03 11:13:30;;;;;;;0.75;0.57;;;;;;;18.47;15.28;93235.50;6158243;23;20013;-77
2023/02/03 11:16:06;;;;;;;1.25;0.70;;;;;;;18.42;14.69;93234.91;6184374;23;20322;-77
2023/02/03 11:18:46;;;;;;;1.05;0.70;;;;;;;18.73;15.53;93231.97;6157716;23;20068;-78
2023/02/03 11:21:42;;;;;;;0.70;0.60;;;;;;;18.56;15.95;93232.84;6184100;23;20391;-77
2023/02/03 11:24:29;;;;;;;1.30;0.77;;;;;;;18.56;15.84;93227.53;6154473;23;20016;-78
2023/02/03 11:27:05;;;;;;;0.73;0.60;;;;;;;18.75;16.03;93215.75;6184182;23;20262;-77
2023/02/03 11:29:34;;;;;;;1.88;0.50;;;;;;;19.07;15.39;93215.16;6183916;23;20009;-77
2023/02/03 11:32:27;;;;;;;1.05;0.55;;;;;;;19.27;15.58;93203.03;6158043;23;20004;-78
2023/02/03 11:35:15;;;;;;;1.08;0.70;;;;;;;19.45;15.89;93208.19;6140523;23;20013;-77
2023/02/03 11:37:44;;;;;;;1.88;0.90;;;;;;;19.65;15.68;93201.34;6185564;23;20048;-77
2023/02/03 11:40:13;;;;;;;2.45;0.90;;;;;;;19.70;15.72;93201.97;6160471;23;20045;-78
2023/02/03 11:43:15;;;;;;;1.52;0.80;;;;;;;19.61;16.22;93195.91;6186794;23;20437;-78
2023/02/03 11:45:44;;;;;;;3.92;0.70;;;;;;;19.56;15.86;93188.13;6187156;23;20016;-78
2023/02/03 11:48:10;;;;;;;1.42;0.65;;;;;;;19.28;15.70;93179.91;6160433;23;20005;-78
2023/02/03 11:50:49;;;;;;;2.83;0.77;;;;;;;18.69;15.71;93188.66;6160030;23;20499;-77
2023/02/03 11:53:44;;;;;;;4.18;1.08;;;;;;;18.56;16.61;93187.00;6135470;23;20036;-77
2023/02/03 11:56:46;;;;;;;1.52;1.00;;;;;;;18.39;17.45;93185.16;6126310;23;20071;-77
2023/02/03 11:59:40;;;;;;;1.50;0.90;;;;;;;18.14;18.15;93184.16;6130594;23;20017;-77
2023/02/03 12:02:26;;;;;;;1.27;0.80;;;;;;;18.36;17.32;93170.69;6130419;23;20017;-77
2023/02/03 12:05:21;;;;;;;1.27;0.80;;;;;;;18.72;17.35;93172.09;6156807;23;20068;-77
2023/02/03 12:08:18;;;;;;;3.45;0.90;;;;;;;18.73;17.29;93165.69;6156712;23;20013;-77
2023/02/03 12:10:51;;;;;;;1.30;0.93;;;;;;;18.80;17.58;93160.72;6130471;23;20014;-77
2023/02/03 12:13:54;;;;;;;2.15;0.95;;;;;;;18.63;16.74;93164.19;6156358;23;20345;-77
2023/02/03 12:16:54;;;;;;;1.52;0.70;;;;;;;18.27;15.82;93146.88;6108500;23;20433;-77
2023/02/03 12:19:35;;;;;;;1.63;0.85;;;;;;;18.28;16.24;93148.44;6156464;23;20442;-77
2023/02/03 12:22:18;;;;;;;1.98;0.95;;;;;;;18.51;16.55;93133.06;6130127;23;20450;-77
2023/02/03 12:25:04;;;;;;;1.88;1.00;;;;;;;18.58;16.66;93132.56;6156570;23;20037;-77
2023/02/03 12:27:46;;;;;;;1.35;0.80;;;;;;;18.86;15.67;93122.28;6130299;23;20010;-78
2023/02/03 12:30:20;;;;;;;1.88;0.65;;;;;;;18.76;16.24;93129.81;6130184;23;20025;-77
2023/02/03 12:33:08;;;;;;;1.35;0.90;;;;;;;18.87;16.30;93126.50;6156123;23;20096;-77
2023/02/03 12:35:42;;;;;;;7.18;0.90;;;;;;;18.82;16.60;93116.03;6156394;23;20019;-77
2023/02/03 12:38:37;;;;;;;1.02;0.70;;;;;;;18.35;17.01;93118.78;6156412;23;20005;-77